sensor_id;sensor_type;location;lat;lon;timestamp;P1;durP1;ratioP1;P2;durP2;ratioP2
52124;SDS011;38119;52.710;6.398;2022-11-20T00:01:05;18.45;;;10.30;;
52124;SDS011;38119;52.710;6.398;2022-11-20T00:03:31;18.70;;;10.05;;
52124;SDS011;38119;52.710;6.398;2022-11-20T00:06:00;18.05;;;9.65;;
52124;SDS011;38119;52.710;6.398;2022-11-20T00:08:27;18.38;;;9.40;;
52124;SDS011;38119;52.710;6.398;2022-11-20T00:10:53;15.48;;;8.65;;
52124;SDS011;38119;52.710;6.398;2022-11-20T00:13:18;17.15;;;9.65;;
52124;SDS011;38119;52.710;6.398;2022-11-20T00:15:44;18.13;;;9.68;;
52124;SDS011;38119;52.710;6.398;2022-11-20T00:18:09;17.73;;;8.65;;
52124;SDS011;38119;52.710;6.398;2022-11-20T00:20:35;17.75;;;9.13;;
52124;SDS011;38119;52.710;6.398;2022-11-20T00:23:00;16.90;;;9.38;;
52124;SDS011;38119;52.710;6.398;2022-11-20T00:25:26;20.20;;;10.43;;
52124;SDS011;38119;52.710;6.398;2022-11-20T00:27:51;17.23;;;9.82;;
52124;SDS011;38119;52.710;6.398;2022-11-20T00:30:17;20.80;;;10.70;;
52124;SDS011;38119;52.710;6.398;2022-11-20T00:32:43;27.70;;;12.52;;
52124;SDS011;38119;52.710;6.398;2022-11-20T00:35:08;26.73;;;12.07;;
52124;SDS011;38119;52.710;6.398;2022-11-20T00:37:34;23.63;;;11.23;;
52124;SDS011;38119;52.710;6.398;2022-11-20T00:39:59;18.70;;;9.43;;
52124;SDS011;38119;52.710;6.398;2022-11-20T00:42:25;15.40;;;8.63;;
52124;SDS011;38119;52.710;6.398;2022-11-20T00:44:51;17.95;;;9.15;;
52124;SDS011;38119;52.710;6.398;2022-11-20T00:47:16;17.13;;;8.93;;
52124;SDS011;38119;52.710;6.398;2022-11-20T00:49:42;19.02;;;9.60;;
52124;SDS011;38119;52.710;6.398;2022-11-20T00:52:08;18.10;;;9.90;;
52124;SDS011;38119;52.710;6.398;2022-11-20T00:54:33;19.33;;;9.90;;
52124;SDS011;38119;52.710;6.398;2022-11-20T00:56:59;19.58;;;9.55;;
52124;SDS011;38119;52.710;6.398;2022-11-20T00:59:24;19.73;;;10.23;;
52124;SDS011;38119;52.710;6.398;2022-11-20T01:01:50;17.70;;;9.48;;
52124;SDS011;38119;52.710;6.398;2022-11-20T01:04:16;18.67;;;10.00;;
52124;SDS011;38119;52.710;6.398;2022-11-20T01:06:42;19.70;;;9.63;;
52124;SDS011;38119;52.710;6.398;2022-11-20T01:09:09;18.50;;;9.88;;
52124;SDS011;38119;52.710;6.398;2022-11-20T01:11:37;19.30;;;9.57;;
52124;SDS011;38119;52.710;6.398;2022-11-20T01:14:09;18.08;;;9.25;;
52124;SDS011;38119;52.710;6.398;2022-11-20T01:16:38;18.23;;;9.60;;
52124;SDS011;38119;52.710;6.398;2022-11-20T01:19:07;20.75;;;10.32;;
52124;SDS011;38119;52.710;6.398;2022-11-20T01:21:37;17.35;;;9.20;;
52124;SDS011;38119;52.710;6.398;2022-11-20T01:24:04;17.83;;;9.32;;
52124;SDS011;38119;52.710;6.398;2022-11-20T01:26:34;17.98;;;9.85;;
52124;SDS011;38119;52.710;6.398;2022-11-20T01:29:01;17.75;;;8.95;;
52124;SDS011;38119;52.710;6.398;2022-11-20T01:33:56;16.80;;;9.25;;
52124;SDS011;38119;52.710;6.398;2022-11-20T01:36:24;18.25;;;9.57;;
52124;SDS011;38119;52.710;6.398;2022-11-20T01:38:51;19.25;;;9.68;;
52124;SDS011;38119;52.710;6.398;2022-11-20T01:41:21;18.30;;;9.43;;
52124;SDS011;38119;52.710;6.398;2022-11-20T01:44:06;18.15;;;9.60;;
52124;SDS011;38119;52.710;6.398;2022-11-20T01:46:32;17.42;;;9.25;;
52124;SDS011;38119;52.710;6.398;2022-11-20T01:49:13;19.65;;;9.57;;
52124;SDS011;38119;52.710;6.398;2022-11-20T01:51:52;19.67;;;9.77;;
52124;SDS011;38119;52.710;6.398;2022-11-20T01:54:34;18.65;;;9.88;;
52124;SDS011;38119;52.710;6.398;2022-11-20T01:57:04;19.50;;;10.35;;
52124;SDS011;38119;52.710;6.398;2022-11-20T01:59:33;17.70;;;9.80;;
52124;SDS011;38119;52.710;6.398;2022-11-20T02:01:59;18.75;;;9.60;;
52124;SDS011;38119;52.710;6.398;2022-11-20T02:04:25;18.00;;;9.48;;
52124;SDS011;38119;52.710;6.398;2022-11-20T02:06:52;19.50;;;9.30;;
52124;SDS011;38119;52.710;6.398;2022-11-20T02:09:26;19.92;;;9.93;;
52124;SDS011;38119;52.710;6.398;2022-11-20T02:11:52;19.80;;;8.95;;
52124;SDS011;38119;52.710;6.398;2022-11-20T02:14:19;17.70;;;9.73;;
52124;SDS011;38119;52.710;6.398;2022-11-20T02:16:46;17.20;;;9.40;;
52124;SDS011;38119;52.710;6.398;2022-11-20T02:19:22;16.15;;;9.13;;
52124;SDS011;38119;52.710;6.398;2022-11-20T02:24:44;19.35;;;9.27;;
52124;SDS011;38119;52.710;6.398;2022-11-20T02:27:12;19.00;;;9.75;;
52124;SDS011;38119;52.710;6.398;2022-11-20T02:29:40;17.30;;;9.38;;
52124;SDS011;38119;52.710;6.398;2022-11-20T02:32:24;17.55;;;9.07;;
52124;SDS011;38119;52.710;6.398;2022-11-20T02:34:51;18.63;;;9.52;;
52124;SDS011;38119;52.710;6.398;2022-11-20T02:37:17;17.55;;;9.35;;
52124;SDS011;38119;52.710;6.398;2022-11-20T02:39:44;18.08;;;9.50;;
52124;SDS011;38119;52.710;6.398;2022-11-20T02:42:12;17.38;;;9.50;;
52124;SDS011;38119;52.710;6.398;2022-11-20T02:44:39;19.95;;;10.50;;
52124;SDS011;38119;52.710;6.398;2022-11-20T02:47:05;18.35;;;9.93;;
52124;SDS011;38119;52.710;6.398;2022-11-20T02:49:32;19.33;;;9.75;;
52124;SDS011;38119;52.710;6.398;2022-11-20T02:51:58;18.75;;;9.90;;
52124;SDS011;38119;52.710;6.398;2022-11-20T02:54:24;18.50;;;9.85;;
52124;SDS011;38119;52.710;6.398;2022-11-20T02:56:49;18.00;;;10.18;;
52124;SDS011;38119;52.710;6.398;2022-11-20T02:59:18;17.23;;;9.38;;
52124;SDS011;38119;52.710;6.398;2022-11-20T03:01:43;18.90;;;10.07;;
52124;SDS011;38119;52.710;6.398;2022-11-20T03:04:09;18.38;;;9.98;;
52124;SDS011;38119;52.710;6.398;2022-11-20T03:06:35;17.33;;;10.00;;
52124;SDS011;38119;52.710;6.398;2022-11-20T03:09:00;17.77;;;9.60;;
52124;SDS011;38119;52.710;6.398;2022-11-20T03:11:26;19.02;;;9.13;;
52124;SDS011;38119;52.710;6.398;2022-11-20T03:13:53;18.23;;;9.63;;
52124;SDS011;38119;52.710;6.398;2022-11-20T03:16:19;16.48;;;9.38;;
52124;SDS011;38119;52.710;6.398;2022-11-20T03:18:46;19.55;;;9.98;;
52124;SDS011;38119;52.710;6.398;2022-11-20T03:21:12;17.88;;;9.45;;
52124;SDS011;38119;52.710;6.398;2022-11-20T03:23:41;17.63;;;9.88;;
52124;SDS011;38119;52.710;6.398;2022-11-20T03:26:15;20.05;;;9.98;;
52124;SDS011;38119;52.710;6.398;2022-11-20T03:28:46;19.40;;;9.88;;
52124;SDS011;38119;52.710;6.398;2022-11-20T03:31:17;17.58;;;9.88;;
52124;SDS011;38119;52.710;6.398;2022-11-20T03:33:47;17.15;;;9.35;;
52124;SDS011;38119;52.710;6.398;2022-11-20T03:36:14;17.77;;;9.98;;
52124;SDS011;38119;52.710;6.398;2022-11-20T03:38:43;20.70;;;10.00;;
52124;SDS011;38119;52.710;6.398;2022-11-20T03:41:12;19.38;;;10.07;;
52124;SDS011;38119;52.710;6.398;2022-11-20T03:43:42;18.98;;;10.15;;
52124;SDS011;38119;52.710;6.398;2022-11-20T03:46:15;20.67;;;10.57;;
52124;SDS011;38119;52.710;6.398;2022-11-20T03:48:41;19.30;;;9.77;;
52124;SDS011;38119;52.710;6.398;2022-11-20T03:51:17;19.60;;;10.15;;
52124;SDS011;38119;52.710;6.398;2022-11-20T03:53:45;19.15;;;9.95;;
52124;SDS011;38119;52.710;6.398;2022-11-20T03:56:15;16.77;;;9.73;;
52124;SDS011;38119;52.710;6.398;2022-11-20T03:58:41;20.25;;;10.20;;
52124;SDS011;38119;52.710;6.398;2022-11-20T04:01:08;17.80;;;9.85;;
52124;SDS011;38119;52.710;6.398;2022-11-20T04:03:39;19.67;;;10.25;;
52124;SDS011;38119;52.710;6.398;2022-11-20T04:06:06;20.52;;;10.68;;
52124;SDS011;38119;52.710;6.398;2022-11-20T04:08:42;19.50;;;9.80;;
52124;SDS011;38119;52.710;6.398;2022-11-20T04:13:34;18.02;;;10.43;;
52124;SDS011;38119;52.710;6.398;2022-11-20T04:16:00;19.48;;;10.77;;
52124;SDS011;38119;52.710;6.398;2022-11-20T04:18:25;16.48;;;9.70;;
52124;SDS011;38119;52.710;6.398;2022-11-20T04:20:51;19.15;;;10.45;;
52124;SDS011;38119;52.710;6.398;2022-11-20T04:23:16;17.30;;;9.63;;
52124;SDS011;38119;52.710;6.398;2022-11-20T04:25:42;18.25;;;9.50;;
52124;SDS011;38119;52.710;6.398;2022-11-20T04:28:07;17.25;;;9.95;;
52124;SDS011;38119;52.710;6.398;2022-11-20T04:30:33;18.10;;;9.70;;
52124;SDS011;38119;52.710;6.398;2022-11-20T04:32:59;20.33;;;9.98;;
52124;SDS011;38119;52.710;6.398;2022-11-20T04:35:24;18.50;;;9.15;;
52124;SDS011;38119;52.710;6.398;2022-11-20T04:37:53;17.73;;;10.07;;
52124;SDS011;38119;52.710;6.398;2022-11-20T04:40:18;16.80;;;9.45;;
52124;SDS011;38119;52.710;6.398;2022-11-20T04:42:44;17.83;;;9.43;;
52124;SDS011;38119;52.710;6.398;2022-11-20T04:45:09;18.05;;;9.70;;
52124;SDS011;38119;52.710;6.398;2022-11-20T04:47:39;18.63;;;10.25;;
52124;SDS011;38119;52.710;6.398;2022-11-20T04:50:06;19.90;;;10.00;;
52124;SDS011;38119;52.710;6.398;2022-11-20T04:52:32;17.52;;;9.43;;
52124;SDS011;38119;52.710;6.398;2022-11-20T04:54:57;19.33;;;10.35;;
52124;SDS011;38119;52.710;6.398;2022-11-20T04:57:23;18.95;;;10.13;;
52124;SDS011;38119;52.710;6.398;2022-11-20T04:59:48;20.15;;;10.70;;
52124;SDS011;38119;52.710;6.398;2022-11-20T05:02:14;19.17;;;9.85;;
52124;SDS011;38119;52.710;6.398;2022-11-20T05:04:39;19.23;;;9.75;;
52124;SDS011;38119;52.710;6.398;2022-11-20T05:07:05;19.90;;;10.90;;
52124;SDS011;38119;52.710;6.398;2022-11-20T05:09:31;19.48;;;10.60;;
52124;SDS011;38119;52.710;6.398;2022-11-20T05:11:56;19.30;;;10.02;;
52124;SDS011;38119;52.710;6.398;2022-11-20T05:14:22;16.85;;;9.82;;
52124;SDS011;38119;52.710;6.398;2022-11-20T05:16:49;20.35;;;10.55;;
52124;SDS011;38119;52.710;6.398;2022-11-20T05:19:15;21.95;;;11.35;;
52124;SDS011;38119;52.710;6.398;2022-11-20T05:21:41;19.25;;;10.00;;
52124;SDS011;38119;52.710;6.398;2022-11-20T05:24:06;17.75;;;9.73;;
52124;SDS011;38119;52.710;6.398;2022-11-20T05:26:32;16.98;;;9.73;;
52124;SDS011;38119;52.710;6.398;2022-11-20T05:28:58;20.15;;;10.13;;
52124;SDS011;38119;52.710;6.398;2022-11-20T05:31:24;17.95;;;9.80;;
52124;SDS011;38119;52.710;6.398;2022-11-20T05:33:50;17.20;;;9.68;;
52124;SDS011;38119;52.710;6.398;2022-11-20T05:36:16;19.25;;;10.35;;
52124;SDS011;38119;52.710;6.398;2022-11-20T05:38:51;18.58;;;10.10;;
52124;SDS011;38119;52.710;6.398;2022-11-20T05:41:17;18.33;;;10.23;;
52124;SDS011;38119;52.710;6.398;2022-11-20T05:43:46;21.55;;;11.15;;
52124;SDS011;38119;52.710;6.398;2022-11-20T05:46:13;19.55;;;11.00;;
52124;SDS011;38119;52.710;6.398;2022-11-20T05:48:40;19.13;;;10.30;;
52124;SDS011;38119;52.710;6.398;2022-11-20T05:51:08;22.23;;;11.13;;
52124;SDS011;38119;52.710;6.398;2022-11-20T05:53:36;18.77;;;11.02;;
52124;SDS011;38119;52.710;6.398;2022-11-20T05:56:03;22.02;;;10.70;;
52124;SDS011;38119;52.710;6.398;2022-11-20T05:58:36;21.25;;;11.27;;
52124;SDS011;38119;52.710;6.398;2022-11-20T06:01:09;17.92;;;10.30;;
52124;SDS011;38119;52.710;6.398;2022-11-20T06:03:41;18.48;;;10.05;;
52124;SDS011;38119;52.710;6.398;2022-11-20T06:06:10;19.85;;;10.45;;
52124;SDS011;38119;52.710;6.398;2022-11-20T06:08:37;19.88;;;10.38;;
52124;SDS011;38119;52.710;6.398;2022-11-20T06:11:20;20.90;;;11.32;;
52124;SDS011;38119;52.710;6.398;2022-11-20T06:13:50;21.30;;;12.30;;
52124;SDS011;38119;52.710;6.398;2022-11-20T06:16:17;22.40;;;11.88;;
52124;SDS011;38119;52.710;6.398;2022-11-20T06:18:48;22.45;;;11.52;;
52124;SDS011;38119;52.710;6.398;2022-11-20T06:21:19;21.80;;;11.05;;
52124;SDS011;38119;52.710;6.398;2022-11-20T06:23:46;22.23;;;11.32;;
52124;SDS011;38119;52.710;6.398;2022-11-20T06:26:13;21.83;;;11.98;;
52124;SDS011;38119;52.710;6.398;2022-11-20T06:28:44;22.03;;;11.90;;
52124;SDS011;38119;52.710;6.398;2022-11-20T06:31:13;19.10;;;10.25;;
52124;SDS011;38119;52.710;6.398;2022-11-20T06:33:40;20.77;;;11.27;;
52124;SDS011;38119;52.710;6.398;2022-11-20T06:36:08;22.85;;;11.27;;
52124;SDS011;38119;52.710;6.398;2022-11-20T06:38:35;21.08;;;11.82;;
52124;SDS011;38119;52.710;6.398;2022-11-20T06:41:01;22.52;;;11.85;;
52124;SDS011;38119;52.710;6.398;2022-11-20T06:43:28;23.55;;;12.57;;
52124;SDS011;38119;52.710;6.398;2022-11-20T06:45:54;22.38;;;11.88;;
52124;SDS011;38119;52.710;6.398;2022-11-20T06:48:22;20.77;;;11.90;;
52124;SDS011;38119;52.710;6.398;2022-11-20T06:50:48;21.10;;;11.88;;
52124;SDS011;38119;52.710;6.398;2022-11-20T06:53:15;21.58;;;12.30;;
52124;SDS011;38119;52.710;6.398;2022-11-20T06:55:46;22.63;;;12.27;;
52124;SDS011;38119;52.710;6.398;2022-11-20T06:58:13;22.27;;;12.27;;
52124;SDS011;38119;52.710;6.398;2022-11-20T07:00:40;27.35;;;14.45;;
52124;SDS011;38119;52.710;6.398;2022-11-20T07:03:09;21.73;;;11.60;;
52124;SDS011;38119;52.710;6.398;2022-11-20T07:05:36;22.77;;;13.20;;
52124;SDS011;38119;52.710;6.398;2022-11-20T07:08:03;24.13;;;12.77;;
52124;SDS011;38119;52.710;6.398;2022-11-20T07:10:29;20.05;;;11.32;;
52124;SDS011;38119;52.710;6.398;2022-11-20T07:12:55;23.40;;;11.82;;
52124;SDS011;38119;52.710;6.398;2022-11-20T07:15:21;23.90;;;12.75;;
52124;SDS011;38119;52.710;6.398;2022-11-20T07:17:48;20.65;;;12.20;;
52124;SDS011;38119;52.710;6.398;2022-11-20T07:20:17;22.10;;;11.70;;
52124;SDS011;38119;52.710;6.398;2022-11-20T07:22:43;21.45;;;10.90;;
52124;SDS011;38119;52.710;6.398;2022-11-20T07:25:08;21.67;;;12.07;;
52124;SDS011;38119;52.710;6.398;2022-11-20T07:27:38;21.15;;;11.02;;
52124;SDS011;38119;52.710;6.398;2022-11-20T07:30:13;23.55;;;11.50;;
52124;SDS011;38119;52.710;6.398;2022-11-20T07:32:39;21.70;;;12.18;;
52124;SDS011;38119;52.710;6.398;2022-11-20T07:35:05;22.65;;;12.23;;
52124;SDS011;38119;52.710;6.398;2022-11-20T07:37:35;24.63;;;13.40;;
52124;SDS011;38119;52.710;6.398;2022-11-20T07:40:00;24.45;;;13.48;;
52124;SDS011;38119;52.710;6.398;2022-11-20T07:42:26;21.55;;;13.00;;
52124;SDS011;38119;52.710;6.398;2022-11-20T07:44:52;21.65;;;12.30;;
52124;SDS011;38119;52.710;6.398;2022-11-20T07:47:17;24.27;;;12.70;;
52124;SDS011;38119;52.710;6.398;2022-11-20T07:49:43;24.40;;;12.98;;
52124;SDS011;38119;52.710;6.398;2022-11-20T07:52:08;22.77;;;13.32;;
52124;SDS011;38119;52.710;6.398;2022-11-20T07:54:34;21.13;;;11.75;;
52124;SDS011;38119;52.710;6.398;2022-11-20T07:56:59;23.70;;;12.00;;
52124;SDS011;38119;52.710;6.398;2022-11-20T07:59:25;20.45;;;11.65;;
52124;SDS011;38119;52.710;6.398;2022-11-20T08:01:51;20.77;;;12.13;;
52124;SDS011;38119;52.710;6.398;2022-11-20T08:04:16;22.15;;;11.90;;
52124;SDS011;38119;52.710;6.398;2022-11-20T08:06:42;21.95;;;11.55;;
52124;SDS011;38119;52.710;6.398;2022-11-20T08:09:07;22.75;;;13.18;;
52124;SDS011;38119;52.710;6.398;2022-11-20T08:11:33;22.88;;;12.82;;
52124;SDS011;38119;52.710;6.398;2022-11-20T08:14:17;22.27;;;12.10;;
52124;SDS011;38119;52.710;6.398;2022-11-20T08:16:44;21.90;;;12.27;;
52124;SDS011;38119;52.710;6.398;2022-11-20T08:19:11;22.30;;;12.48;;
52124;SDS011;38119;52.710;6.398;2022-11-20T08:21:38;22.80;;;12.63;;
52124;SDS011;38119;52.710;6.398;2022-11-20T08:24:04;22.77;;;12.23;;
52124;SDS011;38119;52.710;6.398;2022-11-20T08:26:30;21.40;;;12.15;;
52124;SDS011;38119;52.710;6.398;2022-11-20T08:28:56;23.17;;;12.77;;
52124;SDS011;38119;52.710;6.398;2022-11-20T08:31:23;78.32;;;14.63;;
52124;SDS011;38119;52.710;6.398;2022-11-20T08:33:50;36.17;;;14.10;;
52124;SDS011;38119;52.710;6.398;2022-11-20T08:36:17;26.55;;;12.88;;
52124;SDS011;38119;52.710;6.398;2022-11-20T08:38:46;24.95;;;13.50;;
52124;SDS011;38119;52.710;6.398;2022-11-20T08:41:13;26.35;;;15.20;;
52124;SDS011;38119;52.710;6.398;2022-11-20T08:43:59;28.17;;;15.82;;
52124;SDS011;38119;52.710;6.398;2022-11-20T08:46:27;22.88;;;13.57;;
52124;SDS011;38119;52.710;6.398;2022-11-20T08:49:07;22.90;;;13.57;;
52124;SDS011;38119;52.710;6.398;2022-11-20T08:51:35;26.33;;;13.55;;
52124;SDS011;38119;52.710;6.398;2022-11-20T08:54:02;24.98;;;13.35;;
52124;SDS011;38119;52.710;6.398;2022-11-20T08:56:28;23.27;;;13.90;;
52124;SDS011;38119;52.710;6.398;2022-11-20T08:58:54;24.60;;;14.35;;
52124;SDS011;38119;52.710;6.398;2022-11-20T09:01:19;25.30;;;13.43;;
52124;SDS011;38119;52.710;6.398;2022-11-20T09:03:46;23.27;;;13.98;;
52124;SDS011;38119;52.710;6.398;2022-11-20T09:06:11;28.58;;;14.25;;
52124;SDS011;38119;52.710;6.398;2022-11-20T09:08:38;26.05;;;13.48;;
52124;SDS011;38119;52.710;6.398;2022-11-20T09:11:04;23.52;;;13.50;;
52124;SDS011;38119;52.710;6.398;2022-11-20T09:13:30;22.55;;;12.88;;
52124;SDS011;38119;52.710;6.398;2022-11-20T09:15:58;27.42;;;13.77;;
52124;SDS011;38119;52.710;6.398;2022-11-20T09:18:25;23.83;;;13.70;;
52124;SDS011;38119;52.710;6.398;2022-11-20T09:20:55;24.10;;;13.38;;
52124;SDS011;38119;52.710;6.398;2022-11-20T09:23:22;24.65;;;13.40;;
52124;SDS011;38119;52.710;6.398;2022-11-20T09:25:48;23.83;;;13.00;;
52124;SDS011;38119;52.710;6.398;2022-11-20T09:28:13;24.95;;;13.75;;
52124;SDS011;38119;52.710;6.398;2022-11-20T09:30:39;25.67;;;13.82;;
52124;SDS011;38119;52.710;6.398;2022-11-20T09:33:05;26.77;;;13.98;;
52124;SDS011;38119;52.710;6.398;2022-11-20T09:35:31;23.88;;;13.40;;
52124;SDS011;38119;52.710;6.398;2022-11-20T09:37:57;27.40;;;14.68;;
52124;SDS011;38119;52.710;6.398;2022-11-20T09:40:27;26.88;;;14.63;;
52124;SDS011;38119;52.710;6.398;2022-11-20T09:42:58;24.52;;;13.75;;
52124;SDS011;38119;52.710;6.398;2022-11-20T09:45:39;25.85;;;13.05;;
52124;SDS011;38119;52.710;6.398;2022-11-20T09:48:20;22.10;;;12.57;;
52124;SDS011;38119;52.710;6.398;2022-11-20T09:51:12;21.75;;;12.23;;
52124;SDS011;38119;52.710;6.398;2022-11-20T09:56:27;24.73;;;13.52;;
52124;SDS011;38119;52.710;6.398;2022-11-20T09:58:54;24.77;;;13.18;;
52124;SDS011;38119;52.710;6.398;2022-11-20T10:01:32;22.58;;;12.48;;
52124;SDS011;38119;52.710;6.398;2022-11-20T10:04:02;22.20;;;12.70;;
52124;SDS011;38119;52.710;6.398;2022-11-20T10:09:34;24.13;;;12.43;;
52124;SDS011;38119;52.710;6.398;2022-11-20T10:18:20;24.35;;;13.13;;
52124;SDS011;38119;52.710;6.398;2022-11-20T10:20:37;22.10;;;12.38;;
52124;SDS011;38119;52.710;6.398;2022-11-20T10:25:47;22.05;;;12.13;;
52124;SDS011;38119;52.710;6.398;2022-11-20T10:31:42;23.38;;;12.48;;
52124;SDS011;38119;52.710;6.398;2022-11-20T10:34:26;22.15;;;11.70;;
52124;SDS011;38119;52.710;6.398;2022-11-20T10:37:22;22.02;;;11.95;;
52124;SDS011;38119;52.710;6.398;2022-11-20T10:42:40;21.70;;;11.90;;
52124;SDS011;38119;52.710;6.398;2022-11-20T10:45:17;23.50;;;12.75;;
52124;SDS011;38119;52.710;6.398;2022-11-20T10:47:54;22.67;;;12.60;;
52124;SDS011;38119;52.710;6.398;2022-11-20T10:50:32;20.27;;;12.55;;
52124;SDS011;38119;52.710;6.398;2022-11-20T10:55:54;21.08;;;12.35;;
52124;SDS011;38119;52.710;6.398;2022-11-20T11:01:16;20.17;;;11.57;;
52124;SDS011;38119;52.710;6.398;2022-11-20T11:03:44;20.75;;;11.65;;
52124;SDS011;38119;52.710;6.398;2022-11-20T11:06:12;19.10;;;11.20;;
52124;SDS011;38119;52.710;6.398;2022-11-20T11:08:41;18.58;;;11.05;;
52124;SDS011;38119;52.710;6.398;2022-11-20T11:11:20;20.40;;;11.60;;
52124;SDS011;38119;52.710;6.398;2022-11-20T11:13:48;20.02;;;11.18;;
52124;SDS011;38119;52.710;6.398;2022-11-20T11:16:24;22.30;;;11.25;;
52124;SDS011;38119;52.710;6.398;2022-11-20T11:18:51;22.40;;;11.55;;
52124;SDS011;38119;52.710;6.398;2022-11-20T11:21:23;20.48;;;11.05;;
52124;SDS011;38119;52.710;6.398;2022-11-20T11:23:57;20.60;;;11.35;;
52124;SDS011;38119;52.710;6.398;2022-11-20T11:26:24;18.08;;;10.32;;
52124;SDS011;38119;52.710;6.398;2022-11-20T11:29:00;18.80;;;11.15;;
52124;SDS011;38119;52.710;6.398;2022-11-20T11:31:32;21.23;;;11.23;;
52124;SDS011;38119;52.710;6.398;2022-11-20T11:34:03;17.70;;;10.88;;
52124;SDS011;38119;52.710;6.398;2022-11-20T11:36:30;19.05;;;11.20;;
52124;SDS011;38119;52.710;6.398;2022-11-20T11:38:59;20.75;;;11.88;;
52124;SDS011;38119;52.710;6.398;2022-11-20T11:41:28;19.40;;;11.20;;
52124;SDS011;38119;52.710;6.398;2022-11-20T11:44:00;19.58;;;12.02;;
52124;SDS011;38119;52.710;6.398;2022-11-20T11:46:58;19.75;;;11.60;;
52124;SDS011;38119;52.710;6.398;2022-11-20T11:49:24;19.58;;;11.65;;
52124;SDS011;38119;52.710;6.398;2022-11-20T11:52:09;19.45;;;10.68;;
52124;SDS011;38119;52.710;6.398;2022-11-20T11:54:41;18.63;;;11.52;;
52124;SDS011;38119;52.710;6.398;2022-11-20T12:07:53;19.92;;;11.95;;
52124;SDS011;38119;52.710;6.398;2022-11-20T12:13:30;19.08;;;10.82;;
52124;SDS011;38119;52.710;6.398;2022-11-20T12:15:59;16.85;;;11.02;;
52124;SDS011;38119;52.710;6.398;2022-11-20T12:18:29;19.98;;;12.10;;
52124;SDS011;38119;52.710;6.398;2022-11-20T12:26:44;21.20;;;12.48;;
52124;SDS011;38119;52.710;6.398;2022-11-20T12:35:11;21.52;;;12.52;;
52124;SDS011;38119;52.710;6.398;2022-11-20T12:40:37;22.38;;;13.70;;
52124;SDS011;38119;52.710;6.398;2022-11-20T12:46:53;24.35;;;14.18;;
52124;SDS011;38119;52.710;6.398;2022-11-20T12:57:35;21.70;;;12.73;;
52124;SDS011;38119;52.710;6.398;2022-11-20T13:00:14;19.65;;;12.25;;
52124;SDS011;38119;52.710;6.398;2022-11-20T13:05:21;22.00;;;13.35;;
52124;SDS011;38119;52.710;6.398;2022-11-20T13:08:01;21.42;;;12.93;;
52124;SDS011;38119;52.710;6.398;2022-11-20T13:10:33;21.90;;;13.70;;
52124;SDS011;38119;52.710;6.398;2022-11-20T13:15:54;23.40;;;14.88;;
52124;SDS011;38119;52.710;6.398;2022-11-20T13:21:13;21.00;;;13.15;;
52124;SDS011;38119;52.710;6.398;2022-11-20T13:23:40;19.92;;;12.95;;
52124;SDS011;38119;52.710;6.398;2022-11-20T13:26:13;21.92;;;13.18;;
52124;SDS011;38119;52.710;6.398;2022-11-20T13:28:45;22.63;;;13.02;;
52124;SDS011;38119;52.710;6.398;2022-11-20T13:31:27;21.95;;;12.95;;
52124;SDS011;38119;52.710;6.398;2022-11-20T13:33:56;22.58;;;13.13;;
52124;SDS011;38119;52.710;6.398;2022-11-20T13:36:24;22.02;;;13.68;;
52124;SDS011;38119;52.710;6.398;2022-11-20T13:38:53;20.90;;;13.00;;
52124;SDS011;38119;52.710;6.398;2022-11-20T13:41:27;21.00;;;13.48;;
52124;SDS011;38119;52.710;6.398;2022-11-20T13:46:39;20.05;;;13.13;;
52124;SDS011;38119;52.710;6.398;2022-11-20T13:49:10;20.30;;;13.30;;
52124;SDS011;38119;52.710;6.398;2022-11-20T14:00:23;18.55;;;11.50;;
52124;SDS011;38119;52.710;6.398;2022-11-20T14:03:35;20.95;;;11.98;;
52124;SDS011;38119;52.710;6.398;2022-11-20T14:05:51;21.08;;;12.73;;
52124;SDS011;38119;52.710;6.398;2022-11-20T14:08:25;20.38;;;12.32;;
52124;SDS011;38119;52.710;6.398;2022-11-20T14:13:38;19.60;;;12.32;;
52124;SDS011;38119;52.710;6.398;2022-11-20T14:16:04;19.77;;;11.77;;
52124;SDS011;38119;52.710;6.398;2022-11-20T14:18:30;22.13;;;13.57;;
52124;SDS011;38119;52.710;6.398;2022-11-20T14:20:55;22.05;;;13.68;;
52124;SDS011;38119;52.710;6.398;2022-11-20T14:23:26;23.27;;;14.02;;
52124;SDS011;38119;52.710;6.398;2022-11-20T14:25:53;22.58;;;13.50;;
52124;SDS011;38119;52.710;6.398;2022-11-20T14:28:26;21.58;;;13.32;;
52124;SDS011;38119;52.710;6.398;2022-11-20T14:30:53;20.80;;;13.40;;
52124;SDS011;38119;52.710;6.398;2022-11-20T14:33:20;21.00;;;13.05;;
52124;SDS011;38119;52.710;6.398;2022-11-20T14:35:50;20.95;;;12.77;;
52124;SDS011;38119;52.710;6.398;2022-11-20T14:38:19;22.38;;;13.52;;
52124;SDS011;38119;52.710;6.398;2022-11-20T14:40:49;23.27;;;13.75;;
52124;SDS011;38119;52.710;6.398;2022-11-20T14:43:20;21.35;;;13.18;;
52124;SDS011;38119;52.710;6.398;2022-11-20T14:45:58;21.98;;;13.23;;
52124;SDS011;38119;52.710;6.398;2022-11-20T14:48:30;23.33;;;13.20;;
52124;SDS011;38119;52.710;6.398;2022-11-20T14:51:11;22.67;;;13.17;;
52124;SDS011;38119;52.710;6.398;2022-11-20T14:54:08;19.83;;;12.68;;
52124;SDS011;38119;52.710;6.398;2022-11-20T14:56:33;21.98;;;13.18;;
52124;SDS011;38119;52.710;6.398;2022-11-20T14:58:59;25.08;;;14.65;;
52124;SDS011;38119;52.710;6.398;2022-11-20T15:01:25;44.53;;;28.20;;
52124;SDS011;38119;52.710;6.398;2022-11-20T15:04:00;39.13;;;24.52;;
52124;SDS011;38119;52.710;6.398;2022-11-20T15:06:34;31.60;;;19.88;;
52124;SDS011;38119;52.710;6.398;2022-11-20T15:09:02;34.10;;;20.05;;
52124;SDS011;38119;52.710;6.398;2022-11-20T15:11:38;36.85;;;21.90;;
52124;SDS011;38119;52.710;6.398;2022-11-20T15:14:04;29.55;;;17.25;;
52124;SDS011;38119;52.710;6.398;2022-11-20T15:16:32;27.52;;;16.70;;
52124;SDS011;38119;52.710;6.398;2022-11-20T15:18:58;35.47;;;21.25;;
52124;SDS011;38119;52.710;6.398;2022-11-20T15:21:24;50.20;;;29.33;;
52124;SDS011;38119;52.710;6.398;2022-11-20T15:23:50;38.47;;;23.17;;
52124;SDS011;38119;52.710;6.398;2022-11-20T15:26:21;33.03;;;18.75;;
52124;SDS011;38119;52.710;6.398;2022-11-20T15:28:51;28.90;;;17.10;;
52124;SDS011;38119;52.710;6.398;2022-11-20T15:31:18;24.40;;;14.32;;
52124;SDS011;38119;52.710;6.398;2022-11-20T15:33:46;27.15;;;16.90;;
52124;SDS011;38119;52.710;6.398;2022-11-20T15:36:12;25.05;;;15.55;;
52124;SDS011;38119;52.710;6.398;2022-11-20T15:38:38;21.60;;;13.65;;
52124;SDS011;38119;52.710;6.398;2022-11-20T15:41:03;23.05;;;13.40;;
52124;SDS011;38119;52.710;6.398;2022-11-20T15:43:30;22.98;;;13.75;;
52124;SDS011;38119;52.710;6.398;2022-11-20T15:45:56;22.33;;;13.65;;
52124;SDS011;38119;52.710;6.398;2022-11-20T15:50:54;22.67;;;14.45;;
52124;SDS011;38119;52.710;6.398;2022-11-20T15:53:43;22.13;;;14.10;;
52124;SDS011;38119;52.710;6.398;2022-11-20T15:56:09;25.98;;;16.70;;
52124;SDS011;38119;52.710;6.398;2022-11-20T15:58:37;25.98;;;17.33;;
52124;SDS011;38119;52.710;6.398;2022-11-20T16:01:03;27.05;;;17.77;;
52124;SDS011;38119;52.710;6.398;2022-11-20T16:03:28;24.13;;;15.52;;
52124;SDS011;38119;52.710;6.398;2022-11-20T16:05:55;22.33;;;14.77;;
52124;SDS011;38119;52.710;6.398;2022-11-20T16:08:20;22.55;;;14.32;;
52124;SDS011;38119;52.710;6.398;2022-11-20T16:10:46;22.85;;;14.40;;
52124;SDS011;38119;52.710;6.398;2022-11-20T16:13:16;22.52;;;14.02;;
52124;SDS011;38119;52.710;6.398;2022-11-20T16:16:06;23.42;;;13.68;;